createdAt,value
2023-04-12T00:09:01.697Z,1.54
2023-04-12T00:21:02.182Z,1.60
2023-04-12T00:33:02.608Z,1.51
2023-04-12T00:45:03.047Z,1.49
2023-04-12T00:57:03.475Z,1.56
2023-04-12T01:09:03.926Z,1.20
2023-04-12T01:21:04.436Z,1.04
2023-04-12T01:33:04.889Z,1.37
2023-04-12T01:45:05.325Z,1.45
2023-04-12T01:57:05.732Z,0.64
2023-04-12T02:09:06.228Z,0.86
2023-04-12T02:21:06.664Z,0.28
2023-04-12T02:33:07.157Z,1.03
2023-04-12T02:45:07.548Z,1.01
2023-04-12T02:57:08.037Z,0.92
2023-04-12T03:09:08.454Z,0.59
2023-04-12T03:21:08.912Z,0.12
2023-04-12T03:33:09.426Z,-0.05
2023-04-12T03:45:09.824Z,-0.34
2023-04-12T03:57:10.268Z,-0.32
2023-04-12T04:09:10.711Z,-0.31
2023-04-12T04:21:11.160Z,-0.76
2023-04-12T04:33:11.666Z,-0.65
2023-04-12T04:45:12.057Z,-0.46
2023-04-12T04:57:12.537Z,-0.60
2023-04-12T05:09:12.970Z,-0.53
2023-04-12T05:21:13.469Z,-0.23
2023-04-12T05:33:13.874Z,-0.16
2023-04-12T05:45:14.319Z,0.47
2023-04-12T05:57:14.812Z,0.80
2023-04-12T06:09:15.262Z,2.00
2023-04-12T06:21:15.677Z,2.89
2023-04-12T06:33:16.135Z,3.70
2023-04-12T06:45:16.615Z,3.99
2023-04-12T06:57:17.050Z,6.11
2023-04-12T07:09:17.822Z,8.20
2023-04-12T07:21:17.983Z,9.67
2023-04-12T07:33:19.971Z,10.34
2023-04-12T07:45:18.901Z,10.88
2023-04-12T07:57:19.338Z,11.28
2023-04-12T08:09:19.735Z,11.63
2023-04-12T08:21:20.216Z,12.31
2023-04-12T08:33:20.683Z,12.90
2023-04-12T08:45:21.118Z,13.00
2023-04-12T08:57:21.546Z,13.31
2023-04-12T09:09:22.026Z,13.10
2023-04-12T09:21:22.504Z,13.08
2023-04-12T09:33:22.979Z,13.50
2023-04-12T09:45:23.394Z,13.40
2023-04-12T09:57:23.841Z,13.46
2023-04-12T10:09:24.325Z,13.32
2023-04-12T10:21:24.759Z,13.41
2023-04-12T10:33:25.198Z,14.40
2023-04-12T10:45:25.680Z,15.10
2023-04-12T10:57:26.283Z,13.88
2023-04-12T11:09:26.567Z,15.13
2023-04-12T11:21:27.025Z,14.94
2023-04-12T11:33:27.448Z,16.28
2023-04-12T11:45:27.945Z,16.58
2023-04-12T11:57:28.378Z,14.61
2023-04-12T12:09:28.834Z,15.10
2023-04-12T12:21:29.290Z,15.58
2023-04-12T12:33:45.177Z,15.07
2023-04-12T12:45:30.189Z,15.98
2023-04-12T12:57:30.815Z,16.00
2023-04-12T13:09:31.106Z,15.00
2023-04-12T13:21:31.628Z,15.93
2023-04-12T13:33:32.043Z,15.58
2023-04-12T13:45:34.194Z,19.03
2023-04-12T13:57:32.923Z,18.12
2023-04-12T14:09:33.429Z,17.33
2023-04-12T14:21:33.833Z,16.83
2023-04-12T14:33:34.296Z,15.68
2023-04-12T14:45:34.728Z,15.56
2023-04-12T14:57:35.208Z,15.18
2023-04-12T15:09:35.634Z,15.49
2023-04-12T15:21:36.099Z,14.95
2023-04-12T15:33:36.563Z,14.91
2023-04-12T15:45:37.040Z,15.41
2023-04-12T15:57:37.473Z,15.08
2023-04-12T16:09:37.936Z,14.43
2023-04-12T16:21:38.367Z,14.51
2023-04-12T16:33:38.870Z,14.37
2023-04-12T16:45:39.296Z,13.97
2023-04-12T16:57:39.730Z,13.60
2023-04-12T17:09:40.222Z,13.39
2023-04-12T17:21:40.649Z,12.50
2023-04-12T17:33:41.118Z,11.78
2023-04-12T17:45:41.567Z,11.65
2023-04-12T17:57:42.163Z,11.25
2023-04-12T18:09:43.117Z,10.95
2023-04-12T18:21:43.690Z,10.67
2023-04-12T18:33:43.361Z,10.07
2023-04-12T18:45:43.802Z,9.84
2023-04-12T18:57:45.220Z,9.91
2023-04-12T19:09:44.748Z,10.29
2023-04-12T19:21:45.160Z,10.17
2023-04-12T19:33:45.679Z,9.72
2023-04-12T19:45:46.159Z,9.95
2023-04-12T19:57:46.551Z,9.74
2023-04-12T20:09:47.005Z,9.94
2023-04-12T20:21:47.533Z,10.22
2023-04-12T20:33:47.966Z,10.29
2023-04-12T20:45:48.375Z,10.10
2023-04-12T20:57:48.797Z,10.05
2023-04-12T21:09:49.272Z,10.34
2023-04-12T21:21:49.749Z,10.10
2023-04-12T21:33:50.157Z,10.43
2023-04-12T21:45:50.683Z,10.62
2023-04-12T21:57:52.833Z,10.59
2023-04-12T22:09:51.554Z,10.85
2023-04-12T22:21:52.027Z,10.66
2023-04-12T22:33:52.491Z,10.11
2023-04-12T22:45:52.950Z,10.02
2023-04-12T22:57:53.364Z,10.15
2023-04-12T23:09:53.826Z,9.77
2023-04-12T23:21:54.236Z,9.56
2023-04-12T23:33:54.743Z,9.08
2023-04-12T23:45:55.209Z,9.22
2023-04-12T23:57:55.617Z,9.08
